Time;durP1;ratioP1;P1;durP2;ratioP2;P2;SDS_P1;SDS_P2;PMS_P1;PMS_P2;Temp;Humidity;BMP_temperature;BMP_pressure;BME280_temperature;BME280_humidity;BME280_pressure;Samples;Min_cycle;Max_cycle;Signal;HPM_P1;HPM_P2
2023/01/01 00:02:03;;;;;;;9.35;2.65;;;14.80;73.90;;;;;;5026882;28;20095;-68
2023/01/01 00:04:29;;;;;;;10.23;3.50;;;14.90;73.00;;;;;;5028551;28;20125;-70
2023/01/01 00:06:54;;;;;;;11.80;3.33;;;14.80;72.70;;;;;;5028064;28;20033;-69
2023/01/01 00:12:04;;;;;;;12.38;3.13;;;14.90;72.50;;;;;;5026240;28;20063;-68
2023/01/01 00:14:30;;;;;;;11.40;2.90;;;14.90;72.90;;;;;;5024511;28;20037;-69
2023/01/01 00:16:56;;;;;;;11.18;3.28;;;14.90;72.50;;;;;;5031309;28;20037;-69
2023/01/01 00:19:21;;;;;;;12.75;3.38;;;14.80;72.80;;;;;;5021893;28;20057;-68
2023/01/01 00:21:47;;;;;;;13.52;3.47;;;14.90;72.70;;;;;;5024768;28;20053;-70
2023/01/01 00:24:12;;;;;;;12.25;3.45;;;15.10;71.20;;;;;;5027298;28;20033;-69
2023/01/01 00:26:38;;;;;;;11.80;3.03;;;15.00;71.80;;;;;;5021979;28;20367;-70
2023/01/01 00:29:04;;;;;;;11.63;3.20;;;15.00;71.90;;;;;;5030582;28;20079;-72
2023/01/01 00:31:30;;;;;;;9.65;2.85;;;15.00;72.60;;;;;;5028275;28;21185;-71
2023/01/01 00:33:56;;;;;;;7.00;2.95;;;14.80;73.10;;;;;;5024855;28;20541;-71
2023/01/01 00:36:24;;;;;;;11.32;3.25;;;14.80;73.20;;;;;;5026140;28;20103;-71
2023/01/01 00:38:50;;;;;;;8.27;2.67;;;14.90;72.80;;;;;;5024028;28;20033;-72
2023/01/01 00:41:16;;;;;;;13.20;3.13;;;14.70;73.60;;;;;;5031333;28;20450;-70
2023/01/01 00:43:42;;;;;;;11.77;3.47;;;14.70;73.80;;;;;;5023012;28;20083;-72
2023/01/01 00:46:09;;;;;;;10.68;2.63;;;14.80;73.20;;;;;;5027307;28;20030;-71
2023/01/01 00:48:35;;;;;;;8.55;2.70;;;14.80;72.80;;;;;;5026911;28;20026;-71
2023/01/01 00:51:01;;;;;;;11.40;3.25;;;14.70;73.20;;;;;;5015940;28;22557;-73
2023/01/01 00:53:26;;;;;;;10.00;3.00;;;14.90;72.30;;;;;;5025404;28;20029;-71
2023/01/01 00:55:55;;;;;;;12.25;3.25;;;14.70;73.60;;;;;;5028264;28;20041;-71
2023/01/01 00:58:21;;;;;;;11.45;3.25;;;14.70;73.20;;;;;;5027238;28;20030;-71
2023/01/01 01:00:46;;;;;;;12.15;2.95;;;14.70;73.70;;;;;;5029928;28;20109;-71
2023/01/01 01:03:26;;;;;;;10.40;2.90;;;14.70;73.30;;;;;;5028034;28;20038;-72
2023/01/01 01:06:11;;;;;;;10.10;2.78;;;14.80;72.60;;;;;;5024619;28;20026;-71
2023/01/01 01:08:39;;;;;;;13.70;2.92;;;14.80;72.60;;;;;;5026777;28;20367;-70
2023/01/01 01:11:07;;;;;;;10.77;2.63;;;14.90;72.30;;;;;;5029778;28;20073;-70
2023/01/01 01:13:33;;;;;;;12.57;2.88;;;14.90;71.70;;;;;;5026326;28;20037;-68
2023/01/01 01:15:59;;;;;;;10.07;2.72;;;14.90;72.20;;;;;;5028383;28;20037;-69
2023/01/01 01:18:24;;;;;;;13.07;3.50;;;15.00;70.80;;;;;;5022973;28;20037;-69
2023/01/01 01:20:51;;;;;;;12.38;2.80;;;15.00;71.40;;;;;;5025430;28;20478;-70
2023/01/01 01:23:18;;;;;;;9.15;3.15;;;14.90;72.20;;;;;;5026891;28;20049;-69
2023/01/01 01:25:43;;;;;;;14.88;2.67;;;15.00;71.60;;;;;;5030084;28;20044;-70
2023/01/01 01:28:09;;;;;;;10.20;2.55;;;14.90;72.20;;;;;;5029557;28;20037;-69
2023/01/01 01:30:36;;;;;;;10.70;3.22;;;15.00;71.60;;;;;;5029305;28;20596;-69
2023/01/01 01:33:02;;;;;;;10.68;3.10;;;14.90;71.80;;;;;;5026493;28;20470;-72
2023/01/01 01:35:28;;;;;;;8.90;3.15;;;14.80;72.60;;;;;;5024050;28;20087;-71
2023/01/01 01:37:54;;;;;;;9.25;3.35;;;15.00;70.70;;;;;;5025386;28;20048;-72
2023/01/01 01:40:20;;;;;;;11.48;3.60;;;15.00;71.30;;;;;;5029678;28;20419;-71
2023/01/01 01:42:47;;;;;;;11.90;3.75;;;14.90;72.10;;;;;;5012713;28;20044;-77
2023/01/01 01:45:13;;;;;;;14.55;3.65;;;15.00;71.20;;;;;;5030666;28;20029;-74
2023/01/01 01:47:56;;;;;;;9.50;3.30;;;15.00;71.30;;;;;;5017393;28;20037;-74
2023/01/01 01:50:30;;;;;;;8.65;3.28;;;14.90;72.10;;;;;;5028209;28;20025;-72
2023/01/01 01:53:11;;;;;;;9.18;3.33;;;15.00;70.90;;;;;;5022491;28;20030;-70
2023/01/01 01:55:42;;;;;;;8.50;3.28;;;14.90;71.80;;;;;;5025165;28;20033;-70
2023/01/01 01:58:09;;;;;;;;;;;14.90;71.70;;;;;;5031218;28;20040;-71
2023/01/01 02:00:35;;;;;;;16.20;3.58;;;14.90;72.10;;;;;;5026170;28;19924;-71
2023/01/01 02:03:07;;;;;;;8.30;2.55;;;15.00;71.20;;;;;;5028929;28;20030;-71
2023/01/01 02:05:34;;;;;;;8.18;2.95;;;15.00;71.30;;;;;;5024419;28;20141;-70
2023/01/01 02:08:02;;;;;;;16.05;3.58;;;14.90;71.80;;;;;;5030653;28;20041;-70
2023/01/01 02:10:28;;;;;;;11.90;3.38;;;14.80;72.50;;;;;;5029998;28;20040;-70
2023/01/01 02:12:54;;;;;;;12.73;3.50;;;14.80;72.40;;;;;;5032856;28;20041;-70
2023/01/01 02:15:22;;;;;;;9.45;3.13;;;14.80;72.40;;;;;;5031359;28;20041;-71
2023/01/01 02:17:58;;;;;;;10.23;3.05;;;14.90;71.80;;;;;;5032906;28;20041;-70
2023/01/01 02:20:48;;;;;;;7.82;3.00;;;15.00;71.40;;;;;;5028382;28;20033;-70
2023/01/01 02:23:24;;;;;;;10.13;3.10;;;14.80;72.00;;;;;;5031858;28;20080;-70
2023/01/01 02:26:22;;;;;;;5.47;2.60;;;14.90;72.20;;;;;;5028710;28;20924;-70
2023/01/01 02:28:58;;;;;;;7.72;2.78;;;14.90;72.00;;;;;;5030966;28;20463;-70
2023/01/01 02:31:28;;;;;;;12.68;2.90;;;14.90;72.10;;;;;;5030576;28;20041;-70
2023/01/01 02:33:59;;;;;;;10.07;2.72;;;14.90;72.40;;;;;;5017859;28;20041;-69
2023/01/01 02:36:27;;;;;;;9.35;2.88;;;14.90;72.50;;;;;;5043108;28;20026;-71
2023/01/01 02:38:55;;;;;;;9.50;3.22;;;14.80;72.90;;;;;;5031248;28;20117;-70
2023/01/01 02:41:30;;;;;;;5.47;2.58;;;14.80;72.90;;;;;;5028497;28;20076;-69
2023/01/01 02:43:56;;;;;;;11.38;3.30;;;14.70;73.70;;;;;;5031727;28;20120;-69
2023/01/01 02:46:21;;;;;;;10.15;3.55;;;14.80;73.70;;;;;;5031492;28;20124;-69
2023/01/01 02:48:50;;;;;;;8.73;3.13;;;14.70;74.70;;;;;;5031112;28;20041;-69
2023/01/01 02:51:22;;;;;;;7.97;3.45;;;14.60;75.30;;;;;;5023473;28;20032;-71
2023/01/01 02:54:07;;;;;;;9.85;3.28;;;14.90;73.70;;;;;;5031593;28;20037;-70
2023/01/01 02:56:40;;;;;;;12.02;3.60;;;14.90;74.00;;;;;;5031647;28;20034;-71
2023/01/01 03:02:24;;;;;;;10.80;3.72;;;14.50;76.60;;;;;;5026478;28;20033;-70
2023/01/01 03:05:28;;;;;;;12.57;3.55;;;14.50;76.70;;;;;;5023089;28;20118;-70
2023/01/01 03:08:14;;;;;;;10.27;3.28;;;14.30;77.30;;;;;;5023884;28;20052;-70
2023/01/01 03:11:21;;;;;;;11.68;4.20;;;14.40;76.40;;;;;;5026802;28;20040;-69
2023/01/01 03:13:50;;;;;;;11.05;3.40;;;14.30;77.20;;;;;;4986128;28;20050;-69
2023/01/01 03:16:23;;;;;;;9.25;3.38;;;14.30;77.30;;;;;;4993456;28;20118;-70
2023/01/01 03:19:15;;;;;;;10.68;3.22;;;14.30;76.90;;;;;;5007733;28;20091;-71
2023/01/01 03:21:52;;;;;;;7.70;3.20;;;14.40;76.70;;;;;;5025886;28;20045;-70
2023/01/01 03:24:26;;;;;;;10.43;3.25;;;14.40;76.70;;;;;;5027149;28;20033;-70
2023/01/01 03:26:56;;;;;;;10.20;3.13;;;14.50;75.80;;;;;;5030547;28;20030;-71
2023/01/01 03:29:24;;;;;;;8.80;2.78;;;14.60;75.40;;;;;;5028381;28;20053;-71
2023/01/01 03:31:54;;;;;;;9.20;3.10;;;14.60;75.90;;;;;;5030035;28;20037;-70
2023/01/01 03:34:27;;;;;;;9.43;3.22;;;14.50;76.00;;;;;;5026329;28;20030;-70
2023/01/01 03:36:57;;;;;;;10.27;3.22;;;14.70;75.20;;;;;;5035492;28;20052;-70
2023/01/01 03:39:48;;;;;;;8.25;3.53;;;14.60;76.10;;;;;;5032823;28;20029;-70
2023/01/01 03:42:38;;;;;;;8.90;3.67;;;14.60;75.90;;;;;;5023120;28;20042;-70
2023/01/01 03:45:05;;;;;;;8.50;3.55;;;14.60;76.60;;;;;;5029832;28;20046;-70
2023/01/01 03:47:31;;;;;;;13.27;3.95;;;14.50;77.30;;;;;;5032400;28;20026;-69
2023/01/01 03:49:58;;;;;;;10.73;3.45;;;14.30;78.10;;;;;;5025522;28;20128;-70
2023/01/01 03:52:41;;;;;;;12.35;4.57;;;14.40;77.20;;;;;;5021145;28;20490;-69
2023/01/01 03:55:18;;;;;;;9.40;4.10;;;14.40;77.30;;;;;;5029589;28;20156;-70
2023/01/01 03:57:56;;;;;;;9.20;4.03;;;14.40;77.50;;;;;;5029742;28;20040;-70
2023/01/01 04:00:26;;;;;;;19.23;3.97;;;14.50;76.70;;;;;;5029408;28;20091;-69
2023/01/01 04:03:02;;;;;;;6.80;3.57;;;14.40;77.20;;;;;;5029242;28;20025;-70
2023/01/01 04:05:29;;;;;;;12.07;4.07;;;14.30;77.30;;;;;;5025984;28;20083;-70
2023/01/01 04:07:56;;;;;;;9.45;3.67;;;14.40;76.90;;;;;;5028027;28;20094;-69
2023/01/01 04:10:23;;;;;;;14.10;3.60;;;14.40;77.20;;;;;;5026999;28;20037;-69
2023/01/01 04:12:55;;;;;;;14.77;4.55;;;14.40;76.70;;;;;;5029880;28;20152;-70
2023/01/01 04:15:26;;;;;;;11.05;4.45;;;14.20;77.60;;;;;;5029292;28;20078;-71
2023/01/01 04:17:52;;;;;;;9.23;3.45;;;14.20;77.70;;;;;;5028252;28;20381;-70
2023/01/01 04:20:18;;;;;;;12.20;3.97;;;14.20;77.20;;;;;;5024154;28;20389;-70
2023/01/01 04:22:44;;;;;;;11.65;4.03;;;14.30;77.00;;;;;;5027520;28;20049;-72
2023/01/01 04:25:10;;;;;;;6.38;3.00;;;14.40;76.00;;;;;;5026936;28;20037;-70
2023/01/01 04:27:37;;;;;;;12.00;3.83;;;14.50;75.40;;;;;;5030461;28;20092;-70
2023/01/01 04:30:04;;;;;;;9.18;3.38;;;14.50;75.00;;;;;;5027123;28;20037;-71
2023/01/01 04:32:29;;;;;;;8.40;3.20;;;14.30;76.00;;;;;;5027567;28;20386;-69
2023/01/01 04:34:55;;;;;;;11.23;3.70;;;14.30;76.00;;;;;;5021792;28;20032;-70
2023/01/01 04:37:20;;;;;;;8.25;3.47;;;14.20;76.20;;;;;;5029504;28;20463;-69
2023/01/01 04:39:46;;;;;;;12.65;4.05;;;14.20;76.30;;;;;;5031694;28;20493;-71
2023/01/01 04:42:11;;;;;;;12.07;3.38;;;14.20;76.00;;;;;;5029982;28;20480;-70
2023/01/01 04:44:37;;;;;;;11.30;4.22;;;14.20;75.30;;;;;;5027989;28;20381;-69
2023/01/01 04:47:03;;;;;;;9.65;3.60;;;14.30;75.10;;;;;;5028094;28;20080;-69
2023/01/01 04:49:28;;;;;;;12.25;3.72;;;14.30;75.20;;;;;;5025441;28;20049;-70
2023/01/01 04:51:54;;;;;;;11.77;3.25;;;14.30;74.50;;;;;;5017941;28;20046;-70
2023/01/01 04:54:19;;;;;;;9.38;3.08;;;14.40;74.20;;;;;;5027496;28;20034;-69
2023/01/01 04:56:45;;;;;;;5.75;2.70;;;14.50;72.90;;;;;;5027763;28;20057;-69
2023/01/01 04:59:10;;;;;;;11.23;3.10;;;14.60;72.60;;;;;;5029342;28;20036;-69
2023/01/01 05:01:36;;;;;;;9.70;2.85;;;14.60;72.60;;;;;;5020414;28;20034;-70
2023/01/01 05:04:01;;;;;;;11.43;2.95;;;14.60;72.60;;;;;;5026385;28;20359;-69
2023/01/01 05:06:28;;;;;;;9.25;3.10;;;14.50;72.40;;;;;;5028130;28;20061;-70
2023/01/01 05:08:55;;;;;;;6.80;2.70;;;14.60;71.70;;;;;;5025792;28;20029;-69
2023/01/01 05:11:27;;;;;;;9.45;3.08;;;14.60;71.70;;;;;;5030754;28;20470;-70
2023/01/01 05:13:55;;;;;;;11.32;2.60;;;14.70;70.90;;;;;;5023164;28;20029;-69
2023/01/01 05:16:23;;;;;;;9.40;2.85;;;14.60;71.60;;;;;;5029443;28;20025;-69
2023/01/01 05:18:49;;;;;;;13.07;2.97;;;14.50;71.90;;;;;;5025952;28;20452;-70
2023/01/01 05:21:17;;;;;;;9.18;2.28;;;14.60;71.60;;;;;;5024092;28;20113;-69
2023/01/01 05:23:43;;;;;;;7.57;2.50;;;14.50;71.60;;;;;;5022184;28;20041;-69
2023/01/01 05:26:10;;;;;;;6.03;2.65;;;14.80;69.90;;;;;;5035431;28;20021;-70
2023/01/01 05:28:36;;;;;;;9.27;2.42;;;14.70;70.00;;;;;;5030584;28;20512;-74
2023/01/01 05:31:09;;;;;;;11.45;3.00;;;14.60;70.80;;;;;;5034041;28;20037;-74
2023/01/01 05:33:35;;;;;;;9.45;3.15;;;14.60;71.00;;;;;;5029395;28;20041;-74
2023/01/01 05:36:02;;;;;;;8.30;3.30;;;14.60;70.30;;;;;;5029810;28;20037;-74
2023/01/01 05:38:28;;;;;;;8.73;2.55;;;14.60;70.70;;;;;;5030928;28;20029;-74
2023/01/01 05:40:53;;;;;;;6.10;2.58;;;14.60;69.90;;;;;;5033070;28;20500;-74
2023/01/01 05:43:19;;;;;;;9.15;2.47;;;14.60;70.60;;;;;;5031539;28;20065;-74
2023/01/01 05:45:44;;;;;;;11.35;3.47;;;14.60;70.40;;;;;;5030015;28;20030;-73
2023/01/01 05:48:10;;;;;;;11.00;3.05;;;14.60;69.90;;;;;;5029456;28;20045;-74
2023/01/01 05:50:36;;;;;;;10.88;3.10;;;14.50;70.70;;;;;;5027231;28;20034;-73
2023/01/01 05:53:02;;;;;;;8.20;2.72;;;14.60;69.80;;;;;;5028677;28;20095;-74
2023/01/01 05:55:29;;;;;;;7.90;2.50;;;14.60;69.80;;;;;;5034393;28;20456;-73
2023/01/01 05:57:55;;;;;;;8.13;2.63;;;14.60;69.60;;;;;;5027786;28;20056;-73
2023/01/01 06:00:21;;;;;;;11.70;2.78;;;14.60;69.60;;;;;;5028849;28;20064;-73
2023/01/01 06:02:48;;;;;;;9.38;2.28;;;14.60;69.50;;;;;;5032900;28;20529;-73
2023/01/01 06:05:14;;;;;;;6.32;2.67;;;14.60;69.40;;;;;;5029028;28;20064;-73
2023/01/01 06:07:39;;;;;;;11.27;2.67;;;14.60;69.30;;;;;;5031122;28;20446;-73
2023/01/01 06:10:05;;;;;;;8.02;2.15;;;14.50;70.20;;;;;;5031566;28;20148;-73
2023/01/01 06:12:30;;;;;;;12.27;2.40;;;14.60;68.60;;;;;;5033670;28;20045;-73
2023/01/01 06:14:56;;;;;;;6.80;2.30;;;14.50;69.50;;;;;;5031017;28;20466;-73
2023/01/01 06:17:21;;;;;;;7.22;2.17;;;14.40;70.00;;;;;;5032678;28;20060;-73
2023/01/01 06:19:47;;;;;;;7.15;1.95;;;14.60;69.40;;;;;;5029677;28;20033;-73
2023/01/01 06:22:13;;;;;;;10.15;2.03;;;14.50;69.40;;;;;;5030573;28;20053;-73
2023/01/01 06:24:38;;;;;;;6.88;2.10;;;14.50;69.60;;;;;;5031746;28;20124;-73
2023/01/01 06:27:04;;;;;;;9.73;2.28;;;14.40;70.00;;;;;;5034008;28;20059;-73
2023/01/01 06:29:29;;;;;;;5.05;2.05;;;14.30;70.10;;;;;;5028851;28;20017;-73
2023/01/01 06:31:54;;;;;;;8.07;2.10;;;14.30;70.40;;;;;;5032551;28;20824;-73
2023/01/01 06:34:20;;;;;;;5.95;2.25;;;14.30;70.10;;;;;;5020557;28;20022;-73
2023/01/01 06:36:45;;;;;;;5.53;1.67;;;14.20;70.50;;;;;;5033849;28;20044;-72
2023/01/01 06:39:11;;;;;;;6.80;1.90;;;14.30;69.90;;;;;;5026020;28;20412;-72
2023/01/01 06:41:36;;;;;;;8.85;1.75;;;14.30;70.00;;;;;;5026422;28;20037;-73
2023/01/01 06:44:02;;;;;;;5.68;1.90;;;14.30;69.90;;;;;;5032791;28;20029;-72
2023/01/01 06:46:33;;;;;;;7.25;1.95;;;14.30;69.30;;;;;;5032275;28;20155;-73
2023/01/01 06:49:00;;;;;;;;;;;14.40;69.00;;;;;;5023401;28;20166;-73
2023/01/01 06:51:28;;;;;;;7.10;1.85;;;14.40;69.10;;;;;;5028696;28;20231;-72
2023/01/01 06:53:54;;;;;;;11.30;1.88;;;14.30;69.70;;;;;;5022560;28;20128;-73
2023/01/01 06:56:20;;;;;;;8.75;1.58;;;14.30;69.20;;;;;;5024336;28;20546;-72
2023/01/01 06:58:46;;;;;;;6.88;1.75;;;14.30;69.80;;;;;;5031571;28;20061;-73
2023/01/01 07:01:17;;;;;;;8.65;2.25;;;14.30;69.10;;;;;;5030142;28;20068;-72
2023/01/01 07:03:48;;;;;;;5.57;1.63;;;14.20;69.80;;;;;;5028563;28;20022;-72
2023/01/01 07:06:14;;;;;;;7.53;1.83;;;14.20;70.10;;;;;;5027845;28;20699;-72
2023/01/01 07:08:39;;;;;;;7.88;1.55;;;14.20;70.10;;;;;;5030531;28;20048;-72
2023/01/01 07:11:05;;;;;;;6.07;1.40;;;14.10;70.60;;;;;;5020909;28;20022;-72
2023/01/01 07:13:31;;;;;;;9.70;1.80;;;14.10;70.30;;;;;;5036061;28;20034;-72
2023/01/01 07:15:56;;;;;;;5.45;1.55;;;14.10;70.30;;;;;;5027427;28;20120;-72
2023/01/01 07:18:23;;;;;;;3.58;1.25;;;14.10;70.30;;;;;;5024037;28;20049;-72
2023/01/01 07:20:51;;;;;;;4.82;1.73;;;14.10;69.30;;;;;;5030279;28;20040;-72
2023/01/01 07:23:17;;;;;;;5.40;1.45;;;14.00;70.80;;;;;;5028391;28;20136;-72
2023/01/01 07:25:43;;;;;;;9.05;1.45;;;14.00;70.20;;;;;;5030019;28;20128;-73
2023/01/01 07:28:09;;;;;;;6.35;1.55;;;14.00;70.30;;;;;;5031992;28;20079;-73
2023/01/01 07:30:34;;;;;;;5.93;1.33;;;13.90;70.50;;;;;;5029543;28;20156;-73
2023/01/01 07:33:00;;;;;;;6.78;1.45;;;13.90;71.00;;;;;;5026537;28;20045;-73
2023/01/01 07:35:25;;;;;;;6.07;1.80;;;14.00;70.60;;;;;;5027434;28;20033;-73
2023/01/01 07:37:51;;;;;;;5.55;1.38;;;13.80;71.30;;;;;;5031754;28;20764;-73
2023/01/01 07:40:16;;;;;;;7.13;1.25;;;13.90;70.90;;;;;;5026917;28;20519;-72
2023/01/01 07:42:41;;;;;;;8.27;1.77;;;13.90;71.00;;;;;;5031622;28;20030;-73
2023/01/01 07:45:10;;;;;;;3.28;1.10;;;13.80;71.70;;;;;;5029025;28;20040;-73
2023/01/01 07:47:36;;;;;;;6.18;1.67;;;13.80;71.60;;;;;;5021743;28;20044;-73
2023/01/01 07:50:01;;;;;;;3.58;1.52;;;13.80;72.00;;;;;;5016998;28;21502;-73
2023/01/01 07:52:26;;;;;;;9.48;1.52;;;13.60;72.90;;;;;;5017369;28;20042;-73
2023/01/01 07:54:52;;;;;;;4.88;1.52;;;13.70;72.70;;;;;;5023715;28;20110;-71
2023/01/01 07:57:17;;;;;;;5.07;1.50;;;13.70;73.10;;;;;;5019763;28;20036;-72
2023/01/01 07:59:43;;;;;;;5.13;1.50;;;13.90;71.50;;;;;;5023039;28;20394;-72
2023/01/01 08:02:11;;;;;;;3.85;1.05;;;13.80;72.20;;;;;;5020789;28;20041;-73
2023/01/01 08:04:37;;;;;;;4.50;1.30;;;13.80;72.20;;;;;;5022857;28;20048;-72
2023/01/01 08:07:02;;;;;;;6.78;1.52;;;13.80;72.90;;;;;;5022068;28;20029;-72
2023/01/01 08:09:28;;;;;;;5.25;1.48;;;13.80;73.00;;;;;;5019089;28;20485;-73
2023/01/01 08:11:53;;;;;;;4.60;1.67;;;13.70;73.30;;;;;;5024905;28;20069;-73
2023/01/01 08:14:19;;;;;;;8.77;1.60;;;13.70;73.70;;;;;;5015150;28;20167;-72
2023/01/01 08:16:44;;;;;;;5.30;1.50;;;13.70;73.90;;;;;;5023657;28;20036;-73
2023/01/01 08:19:09;;;;;;;4.68;1.10;;;13.90;72.70;;;;;;5019756;28;20080;-72
2023/01/01 08:21:35;;;;;;;7.32;1.60;;;13.80;73.70;;;;;;5018412;28;20202;-72
2023/01/01 08:24:00;;;;;;;6.47;1.17;;;13.80;73.60;;;;;;5019134;28;20063;-73
2023/01/01 08:26:34;;;;;;;2.97;0.80;;;13.70;72.50;;;;;;5027918;28;20034;-73
2023/01/01 08:29:06;;;;;;;3.55;1.30;;;14.00;70.20;;;;;;5017469;28;20524;-73
2023/01/01 08:31:33;;;;;;;7.95;1.25;;;13.90;69.50;;;;;;5028819;28;20029;-72
2023/01/01 08:33:58;;;;;;;4.72;1.40;;;13.90;70.20;;;;;;5016059;28;20030;-71
2023/01/01 08:36:24;;;;;;;4.97;0.90;;;13.80;69.50;;;;;;5017543;28;20041;-70
2023/01/01 08:38:50;;;;;;;4.28;1.13;;;13.90;69.40;;;;;;5029010;28;20544;-70
2023/01/01 08:41:15;;;;;;;3.17;1.25;;;14.00;69.10;;;;;;5029305;28;20143;-71
2023/01/01 08:43:40;;;;;;;3.28;0.80;;;13.80;70.30;;;;;;5029058;28;20478;-71
2023/01/01 08:46:06;;;;;;;4.50;1.25;;;13.90;69.80;;;;;;5028148;28;20053;-71
2023/01/01 08:48:31;;;;;;;7.55;1.27;;;13.80;70.80;;;;;;5030776;28;20033;-71
2023/01/01 08:50:59;;;;;;;5.22;1.27;;;13.80;71.00;;;;;;5021482;28;20033;-71
2023/01/01 08:53:25;;;;;;;2.92;1.05;;;13.70;71.70;;;;;;5027372;28;20052;-71
2023/01/01 08:55:55;;;;;;;6.57;1.10;;;13.60;71.90;;;;;;5025327;28;20034;-71
2023/01/01 08:58:21;;;;;;;4.40;1.52;;;13.80;70.50;;;;;;5024134;28;20434;-71
2023/01/01 09:00:46;;;;;;;5.07;1.25;;;13.80;71.80;;;;;;5025257;28;20116;-71
2023/01/01 09:03:12;;;;;;;7.03;1.48;;;13.70;71.50;;;;;;5030129;28;20064;-72
2023/01/01 09:05:37;;;;;;;11.60;1.40;;;13.80;70.70;;;;;;5023147;28;20470;-78
2023/01/01 09:08:03;;;;;;;6.75;1.35;;;13.80;71.30;;;;;;5017987;28;20043;-73
2023/01/01 09:10:29;;;;;;;5.55;1.60;;;13.70;72.40;;;;;;5020861;28;20032;-71
2023/01/01 09:12:54;;;;;;;5.80;1.48;;;13.60;73.50;;;;;;5028660;28;20062;-71
2023/01/01 09:15:20;;;;;;;5.40;1.38;;;13.80;72.50;;;;;;5022667;28;20079;-70
2023/01/01 09:17:45;;;;;;;8.68;1.50;;;13.80;72.80;;;;;;5029919;28;20478;-71
2023/01/01 09:20:11;;;;;;;3.50;1.20;;;13.80;73.40;;;;;;5025084;28;20064;-71
2023/01/01 09:22:36;;;;;;;3.45;1.50;;;13.70;73.90;;;;;;5021911;28;20057;-72
2023/01/01 09:25:02;;;;;;;5.38;1.60;;;13.70;73.80;;;;;;5023423;28;20113;-72
2023/01/01 09:27:27;;;;;;;4.70;1.27;;;13.60;74.70;;;;;;5029537;28;20048;-72
2023/01/01 09:29:52;;;;;;;5.43;1.50;;;13.70;73.80;;;;;;5019988;28;20106;-71
2023/01/01 09:32:18;;;;;;;6.68;1.45;;;13.70;74.30;;;;;;5024620;28;20048;-71
2023/01/01 09:34:43;;;;;;;6.20;1.13;;;13.80;73.50;;;;;;5015953;28;20033;-72
2023/01/01 09:37:09;;;;;;;3.67;1.55;;;13.80;73.40;;;;;;5022857;28;20034;-77
2023/01/01 09:39:34;;;;;;;3.35;1.25;;;13.70;74.30;;;;;;5025319;28;20041;-71
2023/01/01 09:42:18;;;;;;;5.75;1.50;;;13.70;73.50;;;;;;5024275;28;20036;-71
2023/01/01 09:44:55;;;;;;;3.83;1.50;;;13.70;73.20;;;;;;5022773;28;20049;-71
2023/01/01 09:47:32;;;;;;;6.40;1.20;;;13.70;72.10;;;;;;5029217;28;20029;-71
2023/01/01 09:50:21;;;;;;;8.63;1.40;;;13.80;72.20;;;;;;5022342;28;20113;-71
2023/01/01 09:52:58;;;;;;;2.70;0.90;;;13.80;71.70;;;;;;5026275;28;20949;-71
2023/01/01 09:55:25;;;;;;;3.83;1.45;;;13.70;70.60;;;;;;5028307;28;20107;-73
2023/01/01 09:57:51;;;;;;;5.32;1.42;;;13.70;70.40;;;;;;5022000;28;20040;-72
2023/01/01 10:00:19;;;;;;;4.88;0.98;;;13.70;70.70;;;;;;5026981;28;20034;-72
2023/01/01 10:03:19;;;;;;;3.65;1.10;;;13.80;70.30;;;;;;5027520;28;20174;-71
2023/01/01 10:06:19;;;;;;;6.93;0.90;;;13.80;69.70;;;;;;5012981;28;20045;-71
2023/01/01 10:09:20;;;;;;;4.20;1.08;;;13.80;69.50;;;;;;5020119;28;20548;-70
2023/01/01 10:12:10;;;;;;;2.95;1.30;;;13.90;68.60;;;;;;5025774;28;20041;-71
2023/01/01 10:14:45;;;;;;;5.45;0.93;;;13.80;68.20;;;;;;5030328;28;20033;-72
2023/01/01 10:17:17;;;;;;;6.32;1.10;;;13.70;67.80;;;;;;5029330;28;20026;-71
2023/01/01 10:19:48;;;;;;;2.15;0.93;;;13.70;67.10;;;;;;5020263;28;20044;-71
2023/01/01 10:22:19;;;;;;;3.15;0.60;;;13.70;66.60;;;;;;5021984;28;20878;-71
2023/01/01 10:24:51;;;;;;;2.08;0.63;;;13.70;66.00;;;;;;5028935;28;20470;-71
2023/01/01 10:27:34;;;;;;;2.92;0.60;;;13.80;65.20;;;;;;5024675;28;20477;-72
2023/01/01 10:30:03;;;;;;;2.50;0.68;;;13.80;64.50;;;;;;5043754;28;20029;-71
2023/01/01 10:32:35;;;;;;;2.72;0.77;;;13.80;64.20;;;;;;5032685;28;20045;-72
2023/01/01 10:35:08;;;;;;;1.67;0.50;;;13.80;64.00;;;;;;5017952;28;20022;-73
2023/01/01 10:37:36;;;;;;;4.18;0.65;;;13.80;63.40;;;;;;5030250;28;20041;-71
2023/01/01 10:40:12;;;;;;;4.57;0.60;;;13.80;62.70;;;;;;5024831;28;20033;-73
2023/01/01 10:42:38;;;;;;;2.90;0.60;;;13.80;63.20;;;;;;5023097;28;20036;-71
2023/01/01 10:45:04;;;;;;;3.42;0.60;;;13.80;63.30;;;;;;5030209;28;20719;-70
2023/01/01 10:47:30;;;;;;;2.63;0.77;;;13.80;63.60;;;;;;5032807;28;20426;-70
2023/01/01 10:50:02;;;;;;;5.65;0.70;;;13.70;64.10;;;;;;5025496;28;20104;-73
2023/01/01 10:52:39;;;;;;;3.00;0.93;;;13.70;64.50;;;;;;5026718;28;20034;-73
2023/01/01 10:55:18;;;;;;;6.22;0.80;;;13.60;65.00;;;;;;5031464;28;20029;-73
2023/01/01 10:57:43;;;;;;;5.78;0.55;;;13.60;63.80;;;;;;5027897;28;20049;-73
2023/01/01 11:00:27;;;;;;;2.58;0.57;;;13.50;63.40;;;;;;5032171;28;20444;-72
2023/01/01 11:03:18;;;;;;;3.63;0.70;;;13.40;63.20;;;;;;5020974;28;20116;-72
2023/01/01 11:06:04;;;;;;;4.28;0.80;;;13.20;64.60;;;;;;5015610;28;20385;-73
2023/01/01 11:08:32;;;;;;;2.88;0.47;;;13.10;64.90;;;;;;5018798;28;20522;-72
2023/01/01 11:11:00;;;;;;;3.72;0.75;;;13.20;64.50;;;;;;5020252;28;20072;-76
2023/01/01 11:13:27;;;;;;;2.20;0.70;;;13.30;63.60;;;;;;5021556;28;20148;-72
2023/01/01 11:15:53;;;;;;;2.50;0.40;;;13.20;64.60;;;;;;5026753;28;20574;-73
2023/01/01 11:18:34;;;;;;;0.82;0.40;;;13.30;64.40;;;;;;5027029;28;20120;-70
2023/01/01 11:21:03;;;;;;;2.17;0.50;;;13.20;64.50;;;;;;5025796;28;20036;-71
2023/01/01 11:23:37;;;;;;;6.38;1.40;;;13.30;64.70;;;;;;5025418;28;20123;-72
2023/01/01 11:26:12;;;;;;;1.35;0.30;;;13.20;65.30;;;;;;5025641;28;20037;-75
2023/01/01 11:28:39;;;;;;;1.73;0.45;;;13.20;64.70;;;;;;5026248;28;20040;-74
2023/01/01 11:31:06;;;;;;;3.00;0.63;;;13.20;65.10;;;;;;5024846;28;20470;-75
2023/01/01 11:33:45;;;;;;;4.03;0.70;;;13.20;65.40;;;;;;5030961;28;20040;-74
2023/01/01 11:36:12;;;;;;;3.22;0.73;;;13.10;65.70;;;;;;5024400;28;20037;-74
2023/01/01 11:38:38;;;;;;;3.17;0.60;;;13.10;65.10;;;;;;5029747;28;20038;-76
2023/01/01 11:41:05;;;;;;;1.42;0.50;;;13.10;65.50;;;;;;5030772;28;20045;-73
2023/01/01 11:43:38;;;;;;;1.55;0.55;;;13.00;65.50;;;;;;5029578;28;20026;-76
2023/01/01 11:46:13;;;;;;;2.67;0.82;;;13.00;65.90;;;;;;5027706;28;20025;-71
2023/01/01 11:48:42;;;;;;;4.88;0.60;;;13.00;65.40;;;;;;5025618;28;20378;-71
2023/01/01 11:51:10;;;;;;;3.60;0.70;;;12.80;66.40;;;;;;5030932;28;20033;-71
2023/01/01 11:53:40;;;;;;;3.10;0.55;;;12.80;67.10;;;;;;5028161;28;20064;-70
2023/01/01 11:56:19;;;;;;;5.55;0.60;;;12.80;66.90;;;;;;5028525;28;20393;-71
2023/01/01 11:59:02;;;;;;;1.95;0.60;;;12.80;66.90;;;;;;5024509;28;20581;-71
2023/01/01 12:01:51;;;;;;;3.00;0.93;;;12.70;67.90;;;;;;5022334;28;20040;-72
2023/01/01 12:04:48;;;;;;;2.70;0.70;;;12.90;66.60;;;;;;5024145;28;20025;-68
2023/01/01 12:07:26;;;;;;;3.63;0.90;;;12.90;67.00;;;;;;5020506;28;20046;-70
2023/01/01 12:10:01;;;;;;;6.10;0.70;;;12.90;67.90;;;;;;5027951;28;20026;-73
2023/01/01 12:12:37;;;;;;;4.72;0.90;;;13.00;67.40;;;;;;5020293;28;20040;-72
2023/01/01 12:15:24;;;;;;;6.30;0.88;;;13.10;66.80;;;;;;5026020;28;20271;-70
2023/01/01 12:18:19;;;;;;;4.50;0.85;;;13.10;67.20;;;;;;5025082;28;20033;-71
2023/01/01 12:20:51;;;;;;;5.97;1.02;;;13.20;67.30;;;;;;5023746;28;20025;-71
2023/01/01 12:23:18;;;;;;;8.68;0.95;;;13.20;66.30;;;;;;5025081;28;20052;-71
2023/01/01 12:25:51;;;;;;;4.03;0.80;;;13.30;66.90;;;;;;5028455;28;20034;-70
2023/01/01 12:28:22;;;;;;;2.55;0.63;;;13.10;66.70;;;;;;5025793;28;20094;-70
2023/01/01 12:31:06;;;;;;;4.80;0.80;;;13.00;67.40;;;;;;5029260;28;20378;-71
2023/01/01 12:34:13;;;;;;;2.80;0.68;;;13.00;68.20;;;;;;5024394;28;20033;-70
2023/01/01 12:36:48;;;;;;;3.72;0.57;;;12.90;69.80;;;;;;5020973;28;20041;-71
2023/01/01 12:39:34;;;;;;;5.60;0.90;;;12.70;70.20;;;;;;5026323;28;20045;-71
2023/01/01 12:42:20;;;;;;;3.30;0.70;;;12.60;71.20;;;;;;5026355;28;20040;-70
2023/01/01 12:45:22;;;;;;;2.70;0.63;;;12.50;72.10;;;;;;5030500;28;20029;-70
2023/01/01 12:48:04;;;;;;;7.53;1.40;;;12.40;71.90;;;;;;5029061;28;20090;-71
2023/01/01 12:50:58;;;;;;;5.07;0.80;;;12.40;72.50;;;;;;5027441;28;20021;-69
2023/01/01 12:53:47;;;;;;;2.75;0.75;;;12.30;73.50;;;;;;5020635;28;20046;-72
2023/01/01 12:56:17;;;;;;;4.47;0.90;;;12.40;72.90;;;;;;5017726;28;20049;-73
2023/01/01 12:58:56;;;;;;;6.07;1.40;;;12.30;73.40;;;;;;5023710;28;20029;-70
2023/01/01 13:01:26;;;;;;;7.53;1.10;;;12.30;73.80;;;;;;5026456;28;20540;-70
2023/01/01 13:03:59;;;;;;;5.03;0.73;;;12.30;73.70;;;;;;5028654;28;20789;-71
2023/01/01 13:06:41;;;;;;;9.90;1.00;;;12.50;73.00;;;;;;5025661;28;20052;-70
2023/01/01 13:09:13;;;;;;;4.57;0.93;;;12.50;72.60;;;;;;5025470;28;20018;-72